Alameda, California
Current Conditions -  °F | °C
As of 7:53 PM on Wednesday 22 Oct 2014 (Local Time) from KOAK Reporting Station
Broken Clouds Broken Clouds  
Wind Chill: 64°   Ceiling: 20000
Heat Index: 64°   Visibility: 10mi
Dew Point: 56°   Wind: 7mph
Humidity: 75%   Direction: NA
Pressure: 30.04"   Gusts: NA
Location:  37.77°N, 122.24°W
Report Text: KOAK 230253Z VRB06KT 10SM FEW150 BKN200 18/13 A3004 RMK AO2 SLP171 T01780133 53005 $
Loading
Personal Weather Stations






























Interactive Weather Map
Tropical Storm Tracking
New forecast layout! Learn more

10-Day Weather Forecast

Advertisements
Track Severe Weather on mobile